Buies Creek, NC

4:09 AM EST on February 20, 2017 (GMT -0500)
Harnett County

Weather History for KHRJ - October, 2014

Change the Weather History Date:

Sunday, October 19, 2014

  Actual Average Record
Temperature  
Mean Temperature 56 °F -  
Max Temperature 66 °F 72 °F 86 °F (2016)
Min Temperature 47 °F 46 °F 32 °F (1976)
Degree Days  
Heating Degree Days 8    
Growing Degree Days 6 (Base 50)    
Moisture  
Dew Point 44 °F    
Average Humidity 68    
Maximum Humidity 97    
Minimum Humidity 38    
Precipitation  
Precipitation 0.00 in - - ()
Sea Level Pressure  
Sea Level Pressure 30.07 in    
Wind  
Wind Speed 2 mph (NW)    
Max Wind Speed 8 mph    
Max Gust Speed 17 mph    
Visibility 10 miles    
Events      
Averages and records for this station are not official NWS values.
T = Trace of Precipitation, MM = Missing Value Source: NWS Daily Summary

Daily Weather History Graph

Daily Weather History Graph

Search for Another Location

Airport or City:

Trip Planner

Search our weather history database for the weather conditions in past years. The results will help you decide how hot, cold, wet, or windy it might be!

Date:

Astronomy

Oct. 19, 2014 Rise Set
Actual Time 7:24 AM EDT 6:34 PM EDT
Civil Twilight 6:58 AM EDT 7:00 PM EDT
Nautical Twilight 6:29 AM EDT 7:29 PM EDT
Astronomical Twilight 5:59 AM EDT 7:59 PM EDT
Moon 3:24 AM EDT (10/19) 4:17 PM EDT (10/19)
Length of Visible Light 12h 01m
Length of Day
11h 10m
Waning Crescent, 17% of the Moon is Illuminated
Oct 19
Waning Crescent
Oct 23
New
Oct 30
First Quarter
Nov 6
Full
Nov 14
Last Quarter

Hourly Weather History & Observations

Time (EDT) Temp. Dew Point Humidity Pressure Visibility Wind Dir Wind Speed Gust Speed Precip Events Conditions
12:15 AM 57.0 °F 45.5 °F 65% 29.92 in 10.0 mi Calm Calm - N/A   Mostly Cloudy
12:35 AM 57.2 °F 45.7 °F 65% 29.92 in 10.0 mi NNW 3.5 mph - N/A   Overcast
12:55 AM 57.4 °F 45.5 °F 65% 29.92 in 10.0 mi Calm Calm - N/A   Overcast
1:15 AM 57.4 °F 45.5 °F 65% 29.93 in 10.0 mi Calm Calm - N/A   Overcast
1:35 AM 56.5 °F 45.1 °F 66% 29.94 in 10.0 mi Calm Calm - N/A   Mostly Cloudy
1:55 AM 55.9 °F 45.5 °F 68% 29.95 in 10.0 mi Calm Calm - N/A   Scattered Clouds
2:15 AM 55.4 °F 45.9 °F 70% 29.96 in 10.0 mi Calm Calm - N/A   Scattered Clouds
2:35 AM 55.4 °F 47.3 °F 74% 29.97 in 10.0 mi Calm Calm - N/A   Mostly Cloudy
2:55 AM 54.9 °F 46.4 °F 73% 29.97 in 10.0 mi Calm Calm - N/A   Mostly Cloudy
3:15 AM 54.1 °F 45.5 °F 73% 29.97 in 10.0 mi NW 4.6 mph - N/A   Scattered Clouds
3:55 AM 52.9 °F 44.8 °F 74% 29.97 in 10.0 mi Calm Calm - N/A   Clear
4:15 AM 51.8 °F 44.8 °F 77% 29.97 in 10.0 mi Calm Calm - N/A   Clear
4:35 AM 51.3 °F 44.8 °F 78% 29.97 in 10.0 mi Calm Calm - N/A   Clear
4:55 AM 50.5 °F 44.8 °F 81% 29.99 in 10.0 mi Calm Calm - N/A   Clear
5:15 AM 50.0 °F 45.0 °F 83% 29.99 in 10.0 mi Calm Calm - N/A   Clear
5:35 AM 50.0 °F 44.8 °F 82% 29.99 in 10.0 mi Calm Calm - N/A   Clear
5:55 AM 49.1 °F 45.3 °F 87% 30.00 in 10.0 mi Calm Calm - N/A   Clear
6:15 AM 48.6 °F 46.8 °F 93% 30.01 in 10.0 mi Calm Calm - N/A   Clear
6:35 AM 48.2 °F 47.3 °F 97% 30.02 in 10.0 mi Calm Calm - N/A   Clear
6:55 AM 47.8 °F 46.6 °F 95% 30.03 in 10.0 mi Calm Calm - N/A   Clear
7:15 AM 47.7 °F 46.4 °F 95% 30.05 in 10.0 mi Calm Calm - N/A   Clear
7:35 AM 47.5 °F 46.4 °F 96% 30.06 in 10.0 mi Calm Calm - N/A   Clear
7:55 AM 48.2 °F 46.6 °F 94% 30.07 in 10.0 mi Calm Calm - N/A   Clear
8:15 AM 49.3 °F 47.1 °F 92% 30.08 in 10.0 mi Calm Calm - N/A   Clear
8:35 AM 50.9 °F 46.0 °F 83% 30.09 in 10.0 mi NW 3.5 mph - N/A   Clear
8:55 AM 52.7 °F 45.0 °F 75% 30.10 in 10.0 mi Calm Calm - N/A   Clear
9:15 AM 54.7 °F 45.3 °F 71% 30.12 in 10.0 mi WNW 3.5 mph - N/A   Clear
9:35 AM 55.9 °F 43.9 °F 64% 30.13 in 10.0 mi NW 5.8 mph - N/A   Clear
9:55 AM 57.0 °F 43.3 °F 60% 30.13 in 10.0 mi NNW 6.9 mph - N/A   Clear
10:15 AM 58.1 °F 42.3 °F 56% 30.13 in 10.0 mi NNW 6.9 mph - N/A   Clear
10:35 AM 59.4 °F 41.7 °F 52% 30.12 in 10.0 mi NNW 4.6 mph - N/A   Clear
10:55 AM 59.5 °F 40.3 °F 49% 30.12 in 10.0 mi NNW 8.1 mph 17.3 mph N/A   Clear
11:15 AM 59.9 °F 40.1 °F 48% 30.12 in 10.0 mi NNW 6.9 mph - N/A   Clear
11:35 AM 60.8 °F 41.0 °F 48% 30.12 in 10.0 mi NNW 6.9 mph - N/A   Clear
11:55 AM 61.9 °F 41.5 °F 47% 30.12 in 10.0 mi NW 4.6 mph - N/A   Clear
12:15 PM 62.4 °F 40.5 °F 44% 30.12 in 10.0 mi North 8.1 mph - N/A   Clear
12:35 PM 62.2 °F 40.5 °F 45% 30.11 in 10.0 mi NW 6.9 mph - N/A   Clear
12:55 PM 62.8 °F 40.5 °F 44% 30.11 in 10.0 mi NNW 4.6 mph - N/A   Clear
1:15 PM 63.7 °F 39.9 °F 42% 30.10 in 10.0 mi NW 6.9 mph - N/A   Clear
1:35 PM 63.7 °F 39.7 °F 41% 30.09 in 10.0 mi NW 5.8 mph - N/A   Clear
1:55 PM 64.4 °F 39.7 °F 40% 30.09 in 10.0 mi NW 3.5 mph - N/A   Clear
2:15 PM 64.2 °F 39.9 °F 41% 30.08 in 10.0 mi North 4.6 mph - N/A   Clear
2:35 PM 65.3 °F 41.4 °F 42% 30.07 in 10.0 mi West 5.8 mph - N/A   Clear
2:55 PM 64.6 °F 40.5 °F 41% 30.07 in 10.0 mi NW 4.6 mph - N/A   Clear
3:15 PM 65.5 °F 40.6 °F 40% 30.07 in 10.0 mi NW 4.6 mph - N/A   Clear
3:35 PM 65.8 °F 39.2 °F 38% 30.07 in 10.0 mi NNW 4.6 mph - N/A   Clear
3:55 PM 66.0 °F 40.1 °F 39% 30.08 in 10.0 mi NW 4.6 mph - N/A   Clear
4:15 PM 65.7 °F 39.4 °F 38% 30.07 in 10.0 mi Calm Calm - N/A   Clear
4:35 PM 65.1 °F 38.8 °F 38% 30.07 in 10.0 mi NW 4.6 mph - N/A   Clear
4:55 PM 65.7 °F 40.6 °F 40% 30.08 in 10.0 mi NW 3.5 mph - N/A   Clear
5:15 PM 65.5 °F 39.6 °F 39% 30.08 in 10.0 mi Calm Calm - N/A   Clear
5:35 PM 64.4 °F 41.0 °F 42% 30.08 in 10.0 mi NNW 3.5 mph - N/A   Clear
5:55 PM 63.0 °F 42.4 °F 47% 30.09 in 10.0 mi Calm Calm - N/A   Clear
6:15 PM 61.2 °F 43.2 °F 52% 30.09 in 10.0 mi Calm Calm - N/A   Clear
6:35 PM 59.5 °F 45.0 °F 59% 30.10 in 10.0 mi Calm Calm - N/A   Clear
6:55 PM 57.9 °F 46.6 °F 66% 30.10 in 10.0 mi Calm Calm - N/A   Clear
7:15 PM 55.9 °F 46.9 °F 72% 30.10 in 10.0 mi Calm Calm - N/A   Clear
7:35 PM 54.7 °F 47.3 °F 76% 30.10 in 10.0 mi Calm Calm - N/A   Clear
7:55 PM 53.8 °F 47.3 °F 79% 30.11 in 10.0 mi Calm Calm - N/A   Clear
8:15 PM 53.1 °F 47.3 °F 81% 30.11 in 10.0 mi Calm Calm - N/A   Clear
8:35 PM 52.7 °F 46.9 °F 81% 30.12 in 10.0 mi Calm Calm - N/A   Clear
8:55 PM 50.9 °F 46.8 °F 86% 30.12 in 10.0 mi Calm Calm - N/A   Clear
9:15 PM 50.4 °F 47.3 °F 89% 30.13 in 10.0 mi Calm Calm - N/A   Clear
9:35 PM 50.4 °F 47.8 °F 91% 30.13 in 10.0 mi Calm Calm - N/A   Clear
9:55 PM 49.1 °F 47.8 °F 95% 30.14 in 10.0 mi Calm Calm - N/A   Clear
10:15 PM 48.7 °F 47.5 °F 95% 30.14 in 10.0 mi Calm Calm - N/A   Clear
10:35 PM 48.4 °F 47.5 °F 97% 30.14 in 10.0 mi NNE 3.5 mph - N/A   Clear
10:55 PM 48.4 °F 47.1 °F 95% 30.14 in 10.0 mi Calm Calm - N/A   Clear
11:15 PM 48.2 °F 46.9 °F 95% 30.15 in 10.0 mi Calm Calm - N/A   Clear
11:35 PM 47.5 °F 46.8 °F 97% 30.15 in 10.0 mi Calm Calm - N/A   Clear
11:55 PM 47.3 °F 45.9 °F 95% 30.15 in 10.0 mi Calm Calm - N/A   Clear